Dalton, Texas
Current Conditions -  °F | °C
As of 10:15 AM on Monday 24 Nov 2014 (Local Time) from KOSA Reporting Station
Clear Clear  
Wind Chill: 54°   Ceiling: Unl
Heat Index: 54°   Visibility: 10mi
Dew Point: 31°   Wind: 8mph
Humidity: 41%   Direction: 300°WNW
Pressure: 30.07"   Gusts: NA
Location:  33.2006°N, 94.6977°W
Report Text: KOSA 241615Z AUTO 30007KT 10SM CLR 12/M01 A3007 RMK AO1 T01211007
Loading
Personal Weather Stations






























Interactive Weather Map New forecast layout! Learn more

10-Day Weather Forecast

Advertisements
Track Severe Weather on mobile